Time;durP1;ratioP1;P1;durP2;ratioP2;P2;SDS_P1;SDS_P2;PMS_P1;PMS_P2;Temp;Humidity;BMP_temperature;BMP_pressure;BME280_temperature;BME280_humidity;BME280_pressure;Samples;Min_cycle;Max_cycle;Signal;HPM_P1;HPM_P2
2023/08/02 00:00:58;;;;;;;2.90;2.07;;;15.70;92.40;;;15.83;80.64;97072.41;5006807;28;20456;-79
2023/08/02 00:03:25;;;;;;;5.00;2.40;;;15.70;92.70;;;15.72;80.65;97057.97;5012767;28;20516;-80
2023/08/02 00:05:56;;;;;;;2.70;2.23;;;15.60;92.60;;;16.06;80.06;97056.63;4999512;28;20471;-79
2023/08/02 00:08:26;;;;;;;6.30;2.63;;;15.90;92.90;;;16.10;77.97;96989.59;5018707;28;20479;-80
2023/08/02 00:10:54;;;;;;;3.80;2.20;;;16.30;91.90;;;16.93;76.31;97064.81;5020498;28;20485;-80
2023/08/02 00:13:21;;;;;;;4.23;2.60;;;16.70;90.60;;;17.37;73.99;97044.94;5018429;28;20474;-80
2023/08/02 00:15:49;;;;;;;3.43;2.40;;;17.20;89.80;;;17.43;73.96;97053.91;5004792;28;20549;-80
2023/08/02 00:18:17;;;;;;;2.87;2.10;;;17.20;89.50;;;16.78;77.03;97060.25;4996577;28;20441;-80
2023/08/02 00:20:45;;;;;;;2.50;1.80;;;16.80;90.00;;;16.35;77.26;97053.31;5014388;28;20462;-80
2023/08/02 00:23:13;;;;;;;2.70;2.27;;;16.60;90.00;;;17.19;75.96;97065.53;5002868;28;20497;-81
2023/08/02 00:25:44;;;;;;;2.30;2.10;;;16.70;90.80;;;16.51;76.28;97056.78;4997015;28;20497;-80
2023/08/02 00:28:11;;;;;;;3.43;2.27;;;16.60;89.70;;;16.81;76.37;97056.97;4987202;28;20477;-81
2023/08/02 00:30:46;;;;;;;3.17;2.77;;;16.50;91.00;;;17.47;74.09;97054.97;5009539;28;20468;-80
2023/08/02 00:33:14;;;;;;;4.40;2.83;;;17.00;90.00;;;17.20;74.46;97056.22;5009421;28;20470;-81
2023/08/02 00:35:46;;;;;;;2.70;2.33;;;17.00;89.60;;;17.39;74.78;97059.13;5022369;28;20449;-79
2023/08/02 00:38:14;;;;;;;3.50;2.67;;;17.00;90.20;;;16.73;75.45;97063.81;4994447;28;20448;-80
2023/08/02 00:40:43;;;;;;;4.07;2.70;;;16.80;89.10;;;16.32;78.59;97039.41;4988244;28;20784;-78
2023/08/02 00:43:10;;;;;;;3.60;2.67;;;16.40;90.50;;;16.12;78.98;97052.81;5007490;28;20467;-77
2023/08/02 00:45:37;;;;;;;2.70;2.50;;;16.10;90.80;;;15.75;81.47;97034.84;5004951;28;20531;-78
2023/08/02 00:48:06;;;;;;;2.70;2.50;;;15.80;92.90;;;15.73;80.68;97050.66;5014246;28;20475;-78
2023/08/02 00:50:35;;;;;;;3.17;2.40;;;15.80;92.20;;;15.64;81.09;97049.53;5008737;28;20455;-77
2023/08/02 00:53:04;;;;;;;6.20;2.87;;;15.70;92.80;;;15.66;81.10;97052.81;5015763;28;20467;-77
2023/08/02 00:55:31;;;;;;;2.83;2.43;;;15.50;92.80;;;15.35;82.56;97063.66;5003399;28;20469;-78
2023/08/02 00:58:01;;;;;;;3.10;2.80;;;15.30;93.50;;;14.70;83.64;96962.34;4997532;28;20461;-78
2023/08/02 01:00:28;;;;;;;3.00;2.70;;;15.20;94.40;;;15.71;83.50;97041.94;4993438;28;21054;-78
2023/08/02 01:02:56;;;;;;;4.50;2.60;;;15.50;95.80;;;16.13;82.45;97059.09;5000718;28;20981;-79
2023/08/02 01:05:35;;;;;;;3.93;2.57;;;15.70;94.60;;;16.59;78.12;97052.69;5009987;28;20460;-78
2023/08/02 01:08:05;;;;;;;2.50;2.30;;;16.20;92.40;;;16.88;76.85;97048.47;5014468;28;20544;-79
2023/08/02 01:10:44;;;;;;;2.30;2.10;;;16.50;91.70;;;16.63;76.52;97001.97;4991974;28;20883;-80
2023/08/02 01:13:16;;;;;;;2.40;2.20;;;16.70;91.30;;;16.88;77.04;97054.75;5000418;28;20482;-79
2023/08/02 01:15:45;;;;;;;2.60;2.40;;;16.70;91.00;;;16.43;76.42;97041.03;5018282;28;20468;-78
2023/08/02 01:18:13;;;;;;;3.80;2.60;;;16.50;90.20;;;16.60;77.33;97045.31;5018447;28;20448;-78
2023/08/02 01:20:41;;;;;;;2.97;2.50;;;16.30;91.40;;;16.69;78.12;97049.91;5009896;28;20475;-78
2023/08/02 01:23:09;;;;;;;2.67;2.47;;;16.30;91.70;;;17.40;74.93;97038.91;5012853;28;20539;-78
2023/08/02 01:25:37;;;;;;;2.80;2.20;;;16.80;90.60;;;17.56;73.43;97023.25;4992484;28;20452;-78
2023/08/02 01:28:11;;;;;;;2.40;2.20;;;17.10;90.00;;;17.58;73.52;97033.06;4992707;28;20483;-79
2023/08/02 01:30:40;;;;;;;3.27;2.50;;;17.20;89.60;;;17.04;72.93;96970.09;5017686;28;20465;-78
2023/08/02 01:33:09;;;;;;;4.47;2.50;;;17.20;88.90;;;17.46;72.71;97036.97;5006603;28;20455;-78
2023/08/02 01:35:37;;;;;;;3.90;2.23;;;17.30;88.10;;;17.69;72.19;97027.22;5009893;28;20455;-80
2023/08/02 01:38:06;;;;;;;3.90;2.23;;;17.40;88.00;;;18.00;70.46;97015.22;5020855;28;20460;-79
2023/08/02 01:40:33;;;;;;;2.60;2.23;;;17.60;87.40;;;17.90;70.96;97018.88;5009970;28;20467;-79
2023/08/02 01:43:00;;;;;;;2.03;1.77;;;17.60;87.20;;;17.09;71.08;96967.38;4997463;28;20729;-79
2023/08/02 01:45:28;;;;;;;4.17;2.27;;;17.40;86.60;;;17.79;70.08;97012.66;4994037;28;20456;-78
2023/08/02 01:47:57;;;;;;;3.50;2.10;;;17.60;86.60;;;17.63;70.83;97038.47;4986779;28;20547;-78
2023/08/02 01:50:24;;;;;;;2.90;2.17;;;17.50;86.40;;;17.68;71.16;97024.78;5017904;28;20451;-80
2023/08/02 01:52:52;;;;;;;2.20;2.00;;;17.40;87.00;;;17.80;71.23;97030.66;4995276;28;20471;-78
2023/08/02 01:55:21;;;;;;;2.23;1.93;;;17.40;87.10;;;17.43;70.70;96985.66;5007077;28;20456;-79
2023/08/02 01:57:48;;;;;;;2.90;2.43;;;17.40;86.80;;;17.45;71.16;97016.22;5007075;28;20894;-78
2023/08/02 02:00:16;;;;;;;5.77;2.40;;;17.30;86.60;;;17.52;71.89;97018.63;4998571;28;20454;-80
2023/08/02 02:02:43;;;;;;;1.90;1.73;;;17.20;86.80;;;18.07;69.27;97018.44;5013583;28;20503;-78
2023/08/02 02:05:11;;;;;;;2.60;2.40;;;17.60;86.60;;;18.08;68.88;97013.81;4997198;28;20866;-79
2023/08/02 02:07:38;;;;;;;2.33;1.73;;;17.70;85.90;;;17.93;69.21;97015.56;4992058;28;20852;-78
2023/08/02 02:10:06;;;;;;;2.57;2.20;;;17.70;85.60;;;18.06;68.82;97005.09;4996712;28;20461;-78
2023/08/02 02:12:35;;;;;;;3.30;2.50;;;17.80;85.40;;;16.87;71.68;97009.47;5002682;28;20466;-78
2023/08/02 02:15:02;;;;;;;2.90;1.93;;;17.20;85.30;;;16.40;73.09;96929.81;4987793;28;20477;-79
2023/08/02 02:17:29;;;;;;;3.27;2.47;;;16.70;87.30;;;16.00;75.08;96959.69;4980343;28;20448;-79
2023/08/02 02:19:57;;;;;;;3.67;2.27;;;16.30;87.60;;;15.39;75.87;96913.19;5013388;28;20456;-78
2023/08/02 02:22:24;;;;;;;2.20;2.00;;;16.00;88.10;;;16.09;76.60;96979.78;4989838;28;20463;-79
2023/08/02 02:24:51;;;;;;;10.20;2.40;;;15.90;89.80;;;16.14;75.69;96955.25;5005607;28;20480;-78
2023/08/02 02:27:18;;;;;;;3.60;2.23;;;16.10;89.80;;;16.72;73.04;96939.47;4985279;28;20556;-79
2023/08/02 02:29:47;;;;;;;3.50;2.27;;;16.50;89.10;;;17.11;71.79;96976.06;5011481;28;20471;-77
2023/08/02 02:32:14;;;;;;;2.17;1.97;;;16.80;87.60;;;16.97;72.67;96960.31;4990305;28;20447;-77
2023/08/02 02:34:42;;;;;;;4.60;3.13;;;16.80;87.60;;;16.37;71.49;96856.78;4987279;28;20483;-78
2023/08/02 02:37:09;;;;;;;3.33;2.20;;;16.90;87.00;;;17.38;70.52;96966.59;4988266;28;20453;-78
2023/08/02 02:39:38;;;;;;;3.63;2.00;;;17.10;86.70;;;17.18;68.77;96938.34;5009257;28;20451;-79
2023/08/02 02:42:06;;;;;;;1.93;1.77;;;17.20;85.80;;;16.73;72.54;96982.00;4994533;28;20477;-78
2023/08/02 02:44:43;;;;;;;2.47;2.27;;;16.60;86.50;;;16.42;73.02;96976.69;4984796;28;20464;-78
2023/08/02 02:47:13;;;;;;;3.30;2.30;;;16.30;87.00;;;16.41;74.18;96915.09;4988690;28;20466;-78
2023/08/02 02:49:40;;;;;;;2.47;2.20;;;16.20;89.30;;;16.65;72.19;96947.97;5010230;28;20850;-78
2023/08/02 02:52:09;;;;;;;3.97;2.30;;;16.40;88.30;;;16.61;72.61;96963.25;5004537;28;20488;-78
2023/08/02 02:54:38;;;;;;;2.17;1.93;;;16.40;87.20;;;17.02;72.19;96961.41;5013492;28;20458;-79
2023/08/02 02:57:06;;;;;;;4.20;2.10;;;16.50;88.10;;;17.27;70.26;96939.38;5015824;28;20546;-80
2023/08/02 02:59:33;;;;;;;2.50;2.30;;;16.90;87.30;;;16.92;70.97;96974.00;4990579;28;20456;-79
2023/08/02 03:02:00;;;;;;;2.20;2.00;;;16.70;86.60;;;16.81;72.69;96942.41;5006628;28;20482;-79
2023/08/02 03:04:29;;;;;;;3.47;2.47;;;16.60;87.60;;;17.23;70.63;96946.53;4998946;28;21111;-80
2023/08/02 03:06:57;;;;;;;2.00;1.80;;;16.90;86.60;;;17.45;70.45;96950.69;5010796;28;20535;-79
2023/08/02 03:09:24;;;;;;;2.90;2.33;;;16.90;86.80;;;17.54;69.24;96945.44;5005177;28;20480;-79
2023/08/02 03:11:51;;;;;;;2.43;2.23;;;17.00;85.90;;;17.50;69.51;96931.53;4997731;28;20527;-78
2023/08/02 03:14:18;;;;;;;2.13;1.87;;;17.20;85.90;;;17.61;68.60;96939.63;5005783;28;20440;-78
2023/08/02 03:16:46;;;;;;;3.90;2.20;;;17.30;85.20;;;17.33;68.64;96942.06;4978742;28;20448;-77
2023/08/02 03:19:13;;;;;;;3.07;2.00;;;17.20;85.00;;;17.30;69.34;96939.91;5010382;28;20465;-79
2023/08/02 03:21:44;;;;;;;2.77;1.73;;;17.10;84.90;;;17.62;68.03;96908.50;5007784;28;20469;-78
2023/08/02 03:24:12;;;;;;;3.43;2.23;;;17.40;85.00;;;17.41;68.12;96936.00;5018169;28;20462;-79
2023/08/02 03:26:39;;;;;;;5.63;1.90;;;17.30;84.30;;;17.22;66.03;96835.72;5025122;28;20447;-77
2023/08/02 03:29:06;;;;;;;2.10;1.83;;;17.60;83.60;;;17.91;66.33;96934.97;5039763;28;20479;-77
2023/08/02 03:31:33;;;;;;;3.13;1.83;;;17.60;83.70;;;17.83;66.68;96926.31;5025485;28;20507;-78
2023/08/02 03:34:00;;;;;;;3.60;2.27;;;17.60;83.80;;;17.73;66.97;96910.03;5027341;28;20467;-78
2023/08/02 03:36:28;;;;;;;2.80;2.20;;;17.60;83.40;;;17.87;66.29;96887.47;5024856;28;20460;-79
2023/08/02 03:38:56;;;;;;;1.80;1.70;;;17.80;83.80;;;17.60;65.14;96839.69;5011015;28;20519;-79
2023/08/02 03:41:23;;;;;;;3.03;1.90;;;17.90;83.00;;;17.76;65.31;96878.59;5001934;28;20828;-80
2023/08/02 03:43:51;;;;;;;3.60;2.20;;;17.90;82.60;;;18.26;65.06;96927.47;5002058;28;20530;-79
2023/08/02 03:46:18;;;;;;;2.30;2.10;;;18.00;82.60;;;18.03;65.31;96883.50;5006191;28;20831;-80
2023/08/02 03:48:45;;;;;;;2.03;1.80;;;17.90;82.70;;;17.64;66.74;96906.28;5015020;28;21085;-79
2023/08/02 03:51:13;;;;;;;2.20;2.00;;;17.60;82.50;;;17.45;65.91;96866.06;5009690;28;20491;-78
2023/08/02 03:53:40;;;;;;;3.73;2.17;;;17.50;82.90;;;17.73;66.08;96871.78;5012115;28;20464;-78
2023/08/02 03:56:08;;;;;;;3.10;1.90;;;17.60;83.10;;;17.90;65.52;96892.34;5004919;28;20473;-77
2023/08/02 03:58:36;;;;;;;2.20;1.87;;;17.70;82.60;;;17.77;64.96;96881.00;5006982;28;20449;-80
2023/08/02 04:01:03;;;;;;;3.03;1.80;;;17.70;82.00;;;17.65;66.28;96869.66;5015279;28;20482;-81
2023/08/02 04:03:30;;;;;;;2.90;2.20;;;17.60;82.80;;;17.72;66.17;96896.63;5020873;28;20457;-80
2023/08/02 04:05:57;;;;;;;3.10;2.27;;;17.50;82.40;;;17.64;65.78;96841.56;4999211;28;20463;-80
2023/08/02 04:08:25;;;;;;;2.20;2.00;;;17.60;82.70;;;17.49;64.66;96845.25;5000861;28;20493;-80
2023/08/02 04:10:53;;;;;;;2.47;2.27;;;17.60;81.80;;;17.71;66.59;96884.91;4994141;28;20483;-78
2023/08/02 04:13:21;;;;;;;4.20;1.73;;;17.40;82.70;;;17.86;64.41;96891.31;5020909;28;20494;-78
2023/08/02 04:15:49;;;;;;;2.13;1.47;;;17.60;82.00;;;17.38;65.53;96838.31;5018293;28;20470;-79
2023/08/02 04:18:17;;;;;;;3.23;1.60;;;17.50;82.00;;;17.87;64.89;96888.28;5004504;28;20454;-80
2023/08/02 04:20:44;;;;;;;2.40;1.77;;;17.60;81.80;;;17.77;64.21;96866.56;5014540;28;20475;-78
2023/08/02 04:23:11;;;;;;;3.10;2.00;;;17.70;81.40;;;17.83;64.86;96889.97;5024782;28;20514;-78
2023/08/02 04:25:38;;;;;;;4.83;1.73;;;17.70;81.80;;;18.37;63.24;96873.50;4998287;28;20521;-78
2023/08/02 04:28:07;;;;;;;3.00;1.90;;;17.90;81.70;;;17.98;62.75;96820.69;5015331;28;20474;-78
2023/08/02 04:30:36;;;;;;;2.33;1.60;;;18.10;80.90;;;18.26;62.68;96846.28;5012243;28;20460;-79
2023/08/02 04:33:03;;;;;;;3.20;2.13;;;18.20;80.50;;;18.53;62.48;96855.78;5014052;28;20478;-76
2023/08/02 04:35:31;;;;;;;2.13;1.70;;;18.40;80.60;;;18.53;62.58;96860.41;5021462;28;20504;-80
2023/08/02 04:37:58;;;;;;;3.80;1.53;;;18.40;80.30;;;18.48;61.30;96822.22;5001701;28;20454;-80
2023/08/02 04:40:25;;;;;;;2.80;1.93;;;18.60;79.70;;;18.64;61.31;96841.94;4992682;28;20465;-79
2023/08/02 04:42:53;;;;;;;3.20;2.13;;;18.60;79.50;;;19.46;59.82;96850.72;4988583;28;20451;-78
2023/08/02 04:45:21;;;;;;;11.70;2.20;;;19.10;79.40;;;20.14;57.36;96841.22;5010972;28;20462;-79
2023/08/02 04:47:49;;;;;;;2.60;2.00;;;19.90;77.90;;;20.23;56.81;96842.94;4991570;28;20465;-79
2023/08/02 04:50:17;;;;;;;3.13;1.60;;;20.20;77.20;;;20.38;56.73;96833.56;4992316;28;20471;-79
2023/08/02 04:52:44;;;;;;;1.97;1.70;;;20.40;76.70;;;20.21;56.38;96828.72;4989112;28;20468;-80
2023/08/02 04:55:11;;;;;;;2.60;2.40;;;20.40;75.90;;;19.59;58.80;96837.34;4993612;28;20457;-79
2023/08/02 04:57:38;;;;;;;1.77;1.67;;;19.90;76.40;;;19.45;59.20;96840.09;4986368;28;21182;-79
2023/08/02 05:00:07;;;;;;;2.53;2.30;;;19.60;76.80;;;19.65;58.58;96838.91;5010687;28;20470;-79
2023/08/02 05:02:36;;;;;;;2.80;1.40;;;19.60;76.90;;;19.42;59.87;96846.19;5018528;28;20519;-77
2023/08/02 05:05:06;;;;;;;3.10;1.60;;;19.30;77.60;;;19.17;60.46;96849.03;5017913;28;20463;-78
2023/08/02 05:07:34;;;;;;;1.77;1.60;;;19.10;77.80;;;19.16;60.13;96844.69;4998202;28;20464;-79
2023/08/02 05:10:03;;;;;;;4.63;2.03;;;19.10;77.80;;;19.44;60.07;96833.78;4994232;28;21074;-80
2023/08/02 05:12:32;;;;;;;1.90;1.80;;;19.10;78.20;;;18.81;61.73;96833.19;4988467;28;20460;-79
2023/08/02 05:14:59;;;;;;;1.90;1.80;;;18.80;78.20;;;19.21;61.17;96841.03;5016138;28;20931;-78
2023/08/02 05:17:30;;;;;;;5.07;1.70;;;18.90;78.80;;;18.98;60.90;96827.97;5006750;28;20498;-78
2023/08/02 05:19:57;;;;;;;1.63;1.43;;;18.90;78.50;;;18.60;62.04;96822.59;4987956;28;20458;-76
2023/08/02 05:22:26;;;;;;;5.23;2.13;;;18.70;78.50;;;18.74;61.02;96805.41;4989615;28;20840;-80
2023/08/02 05:24:54;;;;;;;2.77;1.70;;;18.80;78.40;;;18.29;63.67;96812.09;5006350;28;20475;-79
2023/08/02 05:27:22;;;;;;;4.03;2.00;;;18.20;79.60;;;18.50;62.61;96800.84;5005833;28;20971;-85
2023/08/02 05:29:52;;;;;;;2.37;1.90;;;18.40;79.30;;;17.58;65.40;96817.34;4993516;28;20481;-83
2023/08/02 05:32:20;;;;;;;3.33;2.17;;;17.90;79.30;;;17.31;66.46;96794.13;4990920;28;20454;-82
2023/08/02 05:34:47;;;;;;;3.83;2.30;;;17.60;80.30;;;16.90;66.94;96741.56;5008262;28;20451;-82
2023/08/02 05:37:15;;;;;;;2.83;2.40;;;17.40;80.90;;;16.62;69.44;96804.00;5013537;28;20455;-81
2023/08/02 05:39:46;;;;;;;4.90;2.80;;;17.00;81.50;;;16.76;69.20;96815.06;5015798;28;20460;-79
2023/08/02 05:42:14;;;;;;;4.90;2.77;;;16.90;82.00;;;16.81;69.18;96790.47;5012583;28;20566;-74
2023/08/02 05:44:41;;;;;;;6.53;2.80;;;16.90;82.60;;;16.73;69.82;96839.38;5001830;28;20447;-70
2023/08/02 05:47:08;;;;;;;3.50;2.20;;;16.80;82.50;;;16.28;71.46;96841.03;5007205;28;20451;-72
2023/08/02 05:49:35;;;;;;;4.67;2.60;;;16.50;83.10;;;16.29;71.74;96833.66;4982997;28;20471;-70
2023/08/02 05:52:04;;;;;;;3.20;2.37;;;16.40;83.80;;;16.37;71.88;96822.16;4995932;28;20470;-71
2023/08/02 05:54:31;;;;;;;3.90;3.00;;;16.40;84.50;;;16.64;70.84;96823.63;4986360;28;20466;-71
2023/08/02 05:56:59;;;;;;;3.20;2.20;;;16.60;84.30;;;16.65;71.01;96811.63;4981505;28;20475;-80
2023/08/02 05:59:28;;;;;;;3.80;2.87;;;16.60;84.80;;;16.53;71.35;96802.97;4995480;28;20467;-78
2023/08/02 06:01:55;;;;;;;2.73;2.13;;;16.70;84.10;;;16.60;71.15;96803.47;5002415;28;20516;-79
2023/08/02 06:04:22;;;;;;;4.33;2.60;;;16.60;84.30;;;16.55;71.30;96789.88;5005750;28;20470;-79
2023/08/02 06:06:49;;;;;;;3.53;2.63;;;16.60;84.20;;;16.41;71.87;96779.63;5000539;28;20464;-79
2023/08/02 06:09:17;;;;;;;3.93;2.80;;;16.50;84.70;;;16.55;71.51;96773.53;5000845;28;20483;-75
2023/08/02 06:11:44;;;;;;;5.17;2.27;;;16.60;84.50;;;16.48;72.06;96782.03;5000569;28;20475;-76
2023/08/02 06:14:15;;;;;;;2.33;2.13;;;16.50;84.70;;;16.46;71.68;96751.50;4981824;28;20465;-75
2023/08/02 06:16:42;;;;;;;3.93;2.70;;;16.60;84.80;;;16.51;72.09;96772.47;5003403;28;20468;-73
2023/08/02 06:19:10;;;;;;;6.03;2.93;;;16.60;84.90;;;16.58;72.07;96783.84;4978612;28;20457;-79
2023/08/02 06:21:37;;;;;;;3.47;2.43;;;16.60;84.80;;;16.56;72.39;96775.16;4984203;28;20447;-76
2023/08/02 06:24:05;;;;;;;2.60;2.37;;;16.60;85.20;;;16.60;71.99;96773.47;4993649;28;20457;-78
2023/08/02 06:26:33;;;;;;;4.23;2.57;;;16.60;85.00;;;16.45;72.47;96779.03;4996143;28;20464;-79
2023/08/02 06:29:00;;;;;;;4.93;2.90;;;16.60;84.80;;;16.48;72.92;96778.50;4997993;28;20488;-83
2023/08/02 06:31:29;;;;;;;3.00;2.17;;;16.50;85.20;;;16.25;73.24;96761.75;5002356;28;20586;-76
2023/08/02 06:33:56;;;;;;;3.20;2.30;;;16.40;85.40;;;16.52;72.54;96776.81;4992463;28;20516;-75
2023/08/02 06:36:24;;;;;;;3.80;2.50;;;16.60;85.50;;;16.55;72.17;96773.53;4976017;28;20949;-72
2023/08/02 06:38:51;;;;;;;3.13;2.30;;;16.60;85.30;;;16.33;72.69;96736.63;4982550;28;20512;-73
2023/08/02 06:41:18;;;;;;;4.10;2.57;;;16.60;85.40;;;16.58;72.34;96770.22;5001813;28;20470;-74
2023/08/02 06:43:45;;;;;;;3.67;2.30;;;16.60;85.30;;;16.61;72.04;96772.41;4997885;28;20981;-75
2023/08/02 06:46:12;;;;;;;3.40;2.30;;;16.70;85.20;;;16.37;72.86;96762.22;5009140;28;20469;-72
2023/08/02 06:48:41;;;;;;;10.53;2.50;;;16.60;85.30;;;16.47;72.86;96772.22;4997378;28;20503;-72
2023/08/02 06:51:12;;;;;;;6.20;2.77;;;16.50;85.50;;;16.51;72.99;96767.00;5003687;28;20475;-76
2023/08/02 06:53:38;;;;;;;5.03;3.00;;;16.50;85.80;;;16.46;72.93;96761.63;4999587;28;20553;-83
2023/08/02 06:56:12;;;;;;;4.37;2.40;;;16.60;85.60;;;16.47;72.99;96761.31;5000733;28;20477;-79
2023/08/02 06:58:39;;;;;;;4.30;2.50;;;16.60;85.60;;;16.75;72.11;96758.06;5004286;28;20820;-74
2023/08/02 07:01:14;;;;;;;4.40;2.27;;;16.70;85.70;;;16.71;72.57;96744.22;4991907;28;20519;-72
2023/08/02 07:03:43;;;;;;;2.60;2.17;;;16.70;85.60;;;16.74;72.45;96760.00;4980685;28;20458;-75
2023/08/02 07:06:12;;;;;;;3.67;2.77;;;16.80;85.70;;;16.62;73.04;96757.66;5023465;28;20603;-72
2023/08/02 07:08:40;;;;;;;3.43;2.70;;;16.70;85.80;;;16.82;72.93;96744.94;5008686;28;20457;-74
2023/08/02 07:11:07;;;;;;;3.93;2.77;;;16.70;86.00;;;16.87;73.07;96747.59;5011163;28;20501;-74
2023/08/02 07:13:37;;;;;;;4.03;2.13;;;16.80;86.20;;;16.90;72.90;96748.97;4980638;28;20515;-79
2023/08/02 07:16:05;;;;;;;4.80;2.27;;;16.80;86.10;;;16.67;73.43;96733.06;5007547;28;20495;-78
2023/08/02 07:18:32;;;;;;;3.03;2.57;;;16.80;86.30;;;16.79;73.43;96748.25;5025656;28;20460;-77
2023/08/02 07:21:06;;;;;;;2.73;2.10;;;16.80;86.30;;;16.79;74.12;96740.06;5010119;28;20455;-77
2023/08/02 07:23:33;;;;;;;3.73;2.57;;;16.80;86.50;;;16.83;74.09;96746.56;4982147;28;20468;-78
2023/08/02 07:26:01;;;;;;;3.10;2.47;;;16.90;86.70;;;16.99;73.82;96739.88;4996842;28;20457;-81
2023/08/02 07:28:28;;;;;;;4.17;2.33;;;16.90;86.90;;;16.91;74.01;96742.41;4986027;28;20473;-77
2023/08/02 07:31:07;;;;;;;3.40;2.53;;;16.90;87.00;;;16.89;72.76;96690.06;4978316;28;20512;-77
2023/08/02 07:33:34;;;;;;;4.77;2.97;;;17.00;86.80;;;17.31;72.15;96740.38;4994908;28;20463;-79
2023/08/02 07:36:01;;;;;;;5.37;2.53;;;17.20;86.40;;;17.30;72.70;96727.84;5004111;28;20450;-77
2023/08/02 07:38:31;;;;;;;3.80;2.43;;;17.40;86.60;;;17.62;71.91;96723.63;4994498;28;20541;-77
2023/08/02 07:40:58;;;;;;;3.73;2.47;;;17.60;86.30;;;17.44;71.42;96727.94;4982892;28;20496;-76
2023/08/02 07:43:25;;;;;;;3.80;2.63;;;17.60;85.60;;;17.59;71.63;96723.38;5002294;28;20458;-77
2023/08/02 07:45:55;;;;;;;2.37;2.17;;;17.60;85.90;;;17.39;70.78;96692.53;5000891;28;20461;-74
2023/08/02 07:48:22;;;;;;;3.50;2.73;;;17.60;85.50;;;17.67;71.33;96725.47;4987798;28;20448;-75
2023/08/02 07:50:50;;;;;;;4.43;2.83;;;17.60;85.60;;;17.79;71.98;96728.56;4999323;28;20485;-79
2023/08/02 07:53:17;;;;;;;5.43;3.20;;;17.70;86.10;;;17.32;72.67;96713.88;4999260;28;20469;-75
2023/08/02 07:55:48;;;;;;;4.23;2.57;;;17.50;85.90;;;17.53;72.92;96707.06;4984107;28;20461;-72
2023/08/02 07:58:15;;;;;;;3.10;2.80;;;17.50;86.80;;;17.90;71.93;96712.03;5018909;28;20451;-73
2023/08/02 08:00:43;;;;;;;2.30;2.07;;;17.70;86.40;;;17.86;71.91;96716.47;5022094;28;20508;-74
2023/08/02 08:03:10;;;;;;;3.50;2.93;;;17.80;86.10;;;17.98;71.54;96708.66;5011334;28;20467;-77
2023/08/02 08:05:37;;;;;;;3.40;3.07;;;17.90;86.10;;;17.79;71.95;96708.66;5010878;28;20510;-81
2023/08/02 08:08:04;;;;;;;3.17;2.90;;;17.90;85.90;;;17.41;71.92;96641.16;5004357;28;20676;-78
2023/08/02 08:10:32;;;;;;;3.37;2.50;;;17.80;86.10;;;17.94;71.66;96702.97;5003149;28;20492;-81
2023/08/02 08:13:00;;;;;;;2.90;2.50;;;17.80;86.30;;;17.64;73.34;96709.66;5002727;28;20548;-81
2023/08/02 08:15:27;;;;;;;5.00;3.07;;;17.70;86.70;;;17.55;74.88;96706.75;4988912;28;20970;-78
2023/08/02 08:17:54;;;;;;;3.10;2.90;;;17.70;87.90;;;17.55;74.43;96706.75;5014355;28;20448;-82
2023/08/02 08:20:22;;;;;;;4.13;3.13;;;17.60;87.70;;;17.53;75.20;96715.28;5009470;28;20483;-72
2023/08/02 08:22:49;;;;;;;4.10;3.33;;;17.60;88.20;;;17.16;76.65;96708.59;5004925;28;20473;-79
2023/08/02 08:25:16;;;;;;;5.40;3.40;;;17.30;88.40;;;17.11;77.26;96701.28;5007226;28;20943;-79
2023/08/02 08:27:44;;;;;;;4.10;3.23;;;17.20;89.20;;;17.22;76.90;96699.25;5002401;28;20457;-78
2023/08/02 08:30:13;;;;;;;3.97;3.10;;;17.20;89.60;;;17.40;76.49;96694.13;5009170;28;20482;-82
2023/08/02 08:32:40;;;;;;;4.30;2.80;;;17.30;89.90;;;17.01;77.78;96676.03;5003166;28;20464;-78
2023/08/02 08:35:09;;;;;;;3.77;2.83;;;17.20;90.10;;;17.17;77.81;96691.13;4982687;28;20470;-79
2023/08/02 08:37:37;;;;;;;5.50;3.67;;;17.20;90.20;;;16.85;78.42;96662.53;4997894;28;20461;-74
2023/08/02 08:40:05;;;;;;;6.17;3.27;;;17.10;90.20;;;16.93;79.37;96667.38;5003139;28;20987;-80
2023/08/02 08:42:33;;;;;;;3.90;3.30;;;17.00;90.90;;;17.09;79.71;96665.28;4998459;28;20541;-83
2023/08/02 08:45:02;;;;;;;4.77;3.50;;;17.10;91.20;;;17.51;77.83;96654.66;5003911;28;20954;-80
2023/08/02 08:47:31;;;;;;;4.20;3.80;;;17.40;90.90;;;17.28;79.59;96653.59;5014826;28;20789;-82
2023/08/02 08:50:02;;;;;;;5.67;3.53;;;17.30;91.20;;;17.28;79.39;96654.41;5004024;28;20629;-79
2023/08/02 08:52:35;;;;;;;3.93;3.63;;;17.30;91.10;;;17.30;79.33;96645.13;4992444;28;20479;-81
2023/08/02 08:55:06;;;;;;;3.80;3.40;;;17.40;91.10;;;17.21;80.66;96647.69;5007836;28;20547;-80
2023/08/02 08:57:33;;;;;;;9.23;4.40;;;17.30;91.50;;;17.38;78.86;96645.28;5007371;28;20535;-79
2023/08/02 09:00:01;;;;;;;5.37;4.40;;;17.30;91.20;;;17.24;78.56;96647.94;5006654;28;20963;-73
2023/08/02 09:02:32;;;;;;;4.57;4.13;;;17.40;90.70;;;17.51;78.14;96640.22;4997324;28;20475;-76
2023/08/02 09:05:03;;;;;;;4.57;3.80;;;17.50;90.80;;;17.61;77.74;96640.06;5007510;28;20463;-75
2023/08/02 09:07:31;;;;;;;5.50;4.03;;;17.60;90.60;;;17.73;77.37;96647.00;4993615;28;20471;-75
2023/08/02 09:09:58;;;;;;;5.60;4.30;;;17.70;90.60;;;17.01;79.10;96572.38;4999164;28;20472;-75
2023/08/02 09:12:26;;;;;;;5.97;4.50;;;17.50;90.90;;;16.80;79.41;96553.50;5000402;28;20500;-73
2023/08/02 09:15:01;;;;;;;5.27;4.30;;;17.40;91.20;;;17.34;79.06;96618.88;4999158;28;20464;-76
2023/08/02 09:17:29;;;;;;;5.27;3.63;;;17.40;91.20;;;17.48;79.16;96624.41;5001854;28;21037;-75
2023/08/02 09:20:08;;;;;;;6.50;4.30;;;17.50;91.30;;;17.55;79.65;96628.41;4997811;28;20474;-73
2023/08/02 09:22:36;;;;;;;6.80;4.97;;;17.50;91.60;;;17.68;80.09;96639.72;4998591;28;20472;-72
2023/08/02 09:25:07;;;;;;;4.23;3.83;;;17.70;91.80;;;18.03;78.77;96623.91;4983568;28;20552;-73
2023/08/02 09:27:35;;;;;;;4.77;4.20;;;17.90;91.80;;;18.20;78.42;96638.94;4979469;28;20481;-71
2023/08/02 09:30:02;;;;;;;6.50;4.40;;;18.10;91.30;;;18.53;77.02;96638.91;5008000;28;20491;-73
2023/08/02 09:32:30;;;;;;;4.23;3.83;;;18.40;91.10;;;18.67;77.32;96636.22;4997178;28;20465;-76
2023/08/02 09:34:59;;;;;;;4.63;4.23;;;18.50;91.00;;;18.56;76.88;96632.81;5001962;28;20478;-75
2023/08/02 09:37:31;;;;;;;4.77;3.70;;;18.60;90.50;;;18.59;76.60;96625.97;5015460;28;20461;-73
2023/08/02 09:39:58;;;;;;;4.73;3.97;;;18.60;90.50;;;18.78;75.63;96632.16;4994662;28;20452;-72
2023/08/02 09:42:27;;;;;;;4.90;4.37;;;18.70;90.40;;;18.80;75.85;96629.94;5019231;28;20465;-73
2023/08/02 09:44:57;;;;;;;4.90;4.40;;;18.70;90.40;;;18.39;77.57;96625.22;5016899;28;20459;-70
2023/08/02 09:47:27;;;;;;;5.10;4.20;;;18.60;90.60;;;18.53;76.64;96614.28;5004557;28;20453;-73
2023/08/02 09:50:07;;;;;;;5.10;3.80;;;18.60;90.40;;;18.05;77.70;96615.41;5003763;28;20486;-74
2023/08/02 09:52:35;;;;;;;4.50;4.10;;;18.30;90.20;;;18.26;78.35;96599.47;5013094;28;20461;-76
2023/08/02 09:55:03;;;;;;;5.00;4.43;;;18.20;90.90;;;18.25;78.00;96603.31;5008032;28;20465;-76
2023/08/02 09:57:32;;;;;;;4.23;3.80;;;18.30;90.90;;;18.36;77.64;96599.28;5012667;28;20465;-73
2023/08/02 10:00:04;;;;;;;4.10;3.33;;;18.30;90.80;;;18.12;79.32;96597.53;4997617;28;20445;-80
2023/08/02 10:02:32;;;;;;;4.60;3.90;;;18.20;91.20;;;17.90;80.50;96600.03;5012784;28;21056;-76
2023/08/02 10:05:00;;;;;;;4.07;3.50;;;18.10;91.70;;;17.68;80.59;96580.41;4997223;28;20505;-77
2023/08/02 10:07:36;;;;;;;4.70;4.20;;;17.90;91.50;;;18.02;81.00;96589.50;5013385;28;20531;-77
2023/08/02 10:10:06;;;;;;;4.53;4.13;;;18.00;92.70;;;18.17;80.10;96582.13;5004827;28;20542;-79
2023/08/02 10:12:36;;;;;;;4.37;3.97;;;18.10;92.20;;;18.20;80.22;96571.44;5009097;28;21052;-80
2023/08/02 10:15:04;;;;;;;4.50;3.90;;;18.20;92.10;;;18.05;80.51;96558.03;4983248;28;20467;-77
2023/08/02 10:17:32;;;;;;;6.23;4.40;;;18.10;92.20;;;18.01;81.08;96548.75;4983561;28;20459;-77
2023/08/02 10:20:00;;;;;;;5.30;3.70;;;18.00;92.40;;;18.11;80.60;96552.16;4985360;28;20458;-76
2023/08/02 10:22:29;;;;;;;7.20;4.50;;;18.10;92.40;;;17.83;81.29;96545.78;4992249;28;20556;-80
2023/08/02 10:24:57;;;;;;;4.90;3.70;;;17.90;92.20;;;18.02;81.25;96539.44;4999459;28;20964;-75